Terminal Aerodrome Forecast
Issued by NWS

Home | Current Version | Previous Version | Text Only | Print | Product List | Glossary On
Versions: 1 2 3 4 5 6 7 8 9 10 11 12 13
248
FTUS42 KMLB 221142
TAFFPR
TAF
KFPR 221142Z 2212/2312 19006KT P6SM SCT020 SCT250
      TEMPO 2212/2213 BKN020
     FM221300 19015G23KT P6SM SCT025 BKN200
     FM221700 21022G33KT P6SM SCT040 BKN150
      TEMPO 2302/2304 25020G40KT 2SM +TSRA BKN015CB
     FM230400 21015G22KT P6SM -RA VCTS BKN035CB=

USA.gov is the U.S. government's official web portal to all federal, state and local government web resources and services.